Language: 


Des rapports , des résumés tant et plus, au choix de chacun....


Données statistiques de la station
Quotidien Rapport Mars 2, 2017 Unités:  les deux    Anglais   Métrique
« Précédent Jour
Suivant Jour »
Quotidien Hebdomadaire Mensuel Annuel Actuel
  Haut: Bas: Moyen:
Température: TemperatureC °F /  -17.8 °C 3.3 °F /  -15.9 °C 7.8 °F /  -13.4 °C
Pt de rosée: DewpointC °F /  -17.8 °C -1.3 °F /  -18.5 °C 1.3 °F /  -17.1 °C
Humidité: Humidity % 51 % 64 %
Vitesse du vent: WindSpeedKMH mph /  0 km/h - 25.9 mph /  41.7 km/h
Rafales: WindSpeedGustKMH mph /  0 km/h - -
Vent:- - WSW
Pression: PressurehPa in /  0 hPa 998.9 in /  33822.8 hPa -
Précipitation: 0.3 in /  7.62 mm    
Historical Graphs
 
 
Données statistiques pour Mars 2, 2017
Heure Température Point de rosée Pression Vent Vitesse du vent Refales Humidité Pluie (taux horaire)
TemperatureC °F /  -17.8 °C DewpointC °F /  -17.8 °C PressurehPa in /  0 hPa Calm     Humidity % HourlyPrecipMM in /  0 mm
00:03 8.7 °F /  -12.9 °C 8.3 °F /  -13.2 °C 998.9 in /  33822.8 hPa WSW 31.7 mph /  51 km/h 31.7 mph /  51 km/h 97 % 1.0 in /  25.4 mm
00:08 8.7 °F /  -12.9 °C 8.1 °F /  -13.3 °C 998.9 in /  33822.8 hPa WSW 31.7 mph /  51 km/h 31.7 mph /  51 km/h 96 % 1.0 in /  25.4 mm
00:13 8.7 °F /  -12.9 °C 7.8 °F /  -13.4 °C 998.9 in /  33822.8 hPa WSW 31.7 mph /  51 km/h 31.7 mph /  51 km/h 94 % 1.0 in /  25.4 mm
00:18 8.6 °F /  -13 °C 7.4 °F /  -13.7 °C 998.9 in /  33822.8 hPa WSW 38.1 mph /  61.3 km/h 38.1 mph /  61.3 km/h 92 % 1.0 in /  25.4 mm
00:23 8.5 °F /  -13.1 °C 6.7 °F /  -14.1 °C 998.9 in /  33822.8 hPa WSW 46.0 mph /  74 km/h 46.0 mph /  74 km/h 88 % 0.8 in /  20.32 mm
00:28 8.5 °F /  -13.1 °C 6.2 °F /  -14.3 °C 998.9 in /  33822.8 hPa WSW 37.8 mph /  60.8 km/h 46.0 mph /  74 km/h 85 % 0.8 in /  20.32 mm
00:33 8.4 °F /  -13.1 °C 5.9 °F /  -14.5 °C 998.9 in /  33822.8 hPa WSW 37.8 mph /  60.8 km/h 46.0 mph /  74 km/h 84 % 0.8 in /  20.32 mm
00:38 8.3 °F /  -13.2 °C 5.4 °F /  -14.8 °C 998.9 in /  33822.8 hPa WSW 37.8 mph /  60.8 km/h 37.8 mph /  60.8 km/h 82 % 0.8 in /  20.32 mm
00:43 8.3 °F /  -13.2 °C 5.1 °F /  -14.9 °C 998.9 in /  33822.8 hPa WSW 37.8 mph /  60.8 km/h 37.8 mph /  60.8 km/h 80 % 0.5 in /  12.7 mm
00:48 8.3 °F /  -13.2 °C 5.1 °F /  -14.9 °C 998.9 in /  33822.8 hPa WSW 37.8 mph /  60.8 km/h 37.8 mph /  60.8 km/h 80 % 0.3 in /  7.62 mm
00:53 8.2 °F /  -13.2 °C 5.2 °F /  -14.9 °C 999.9 in /  33856.6 hPa WSW 37.8 mph /  60.8 km/h 37.8 mph /  60.8 km/h 81 % 0.3 in /  7.62 mm
00:58 8.2 °F /  -13.2 °C 5.0 °F /  -15 °C 999.9 in /  33856.6 hPa WSW 37.8 mph /  60.8 km/h 37.8 mph /  60.8 km/h 80 % 0.3 in /  7.62 mm
01:03 8.1 °F /  -13.3 °C 4.9 °F /  -15.1 °C 999.9 in /  33856.6 hPa WSW 37.8 mph /  60.8 km/h 37.8 mph /  60.8 km/h 80 % 0.3 in /  7.62 mm
01:08 8.1 °F /  -13.3 °C 4.7 °F /  -15.2 °C 999.9 in /  33856.6 hPa WSW 37.8 mph /  60.8 km/h 37.8 mph /  60.8 km/h 79 % 0.3 in /  7.62 mm
01:13 8.1 °F /  -13.3 °C 4.5 °F /  -15.3 °C 999.9 in /  33856.6 hPa WSW 37.8 mph /  60.8 km/h 37.8 mph /  60.8 km/h 78 % 0.3 in /  7.62 mm
01:18 8.1 °F /  -13.3 °C 4.6 °F /  -15.2 °C 999.9 in /  33856.6 hPa West 37.0 mph /  59.5 km/h 37.0 mph /  59.5 km/h 79 % 0.3 in /  7.62 mm
01:23 8.1 °F /  -13.3 °C 4.4 °F /  -15.3 °C 999.9 in /  33856.6 hPa West 20.1 mph /  32.3 km/h 38.5 mph /  62 km/h 78 % 0.3 in /  7.62 mm
01:28 8.1 °F /  -13.3 °C 4.6 °F /  -15.2 °C 999.9 in /  33856.6 hPa West 24.5 mph /  39.4 km/h 38.5 mph /  62 km/h 79 % 0.0 in /  0 mm
01:33 8.1 °F /  -13.3 °C 4.6 °F /  -15.2 °C 999.9 in /  33856.6 hPa West 38.1 mph /  61.3 km/h 38.1 mph /  61.3 km/h 79 % 0.0 in /  0 mm
01:38 8.1 °F /  -13.3 °C 4.4 °F /  -15.3 °C 1000.9 in /  33890.5 hPa West 38.1 mph /  61.3 km/h 38.1 mph /  61.3 km/h 78 % 0.0 in /  0 mm
01:43 8.1 °F /  -13.3 °C 4.2 °F /  -15.4 °C 1000.9 in /  33890.5 hPa West 32.3 mph /  52 km/h 38.1 mph /  61.3 km/h 77 % 0.0 in /  0 mm
01:48 7.9 °F /  -13.4 °C 4.2 °F /  -15.4 °C 1000.9 in /  33890.5 hPa West 32.3 mph /  52 km/h 38.1 mph /  61.3 km/h 77 % 0.0 in /  0 mm
01:53 8.1 °F /  -13.3 °C 4.2 °F /  -15.4 °C 999.9 in /  33856.6 hPa West 37.8 mph /  60.8 km/h 37.8 mph /  60.8 km/h 77 % 0.0 in /  0 mm
01:58 8.1 °F /  -13.3 °C 4.2 °F /  -15.4 °C 999.9 in /  33856.6 hPa West 23.8 mph /  38.3 km/h 37.8 mph /  60.8 km/h 77 % 0.0 in /  0 mm
02:03 8.1 °F /  -13.3 °C 4.3 °F /  -15.4 °C 999.9 in /  33856.6 hPa West 23.8 mph /  38.3 km/h 37.8 mph /  60.8 km/h 77 % 0.0 in /  0 mm
02:08 8.1 °F /  -13.3 °C 4.2 °F /  -15.4 °C 1000.9 in /  33890.5 hPa WSW 36.4 mph /  58.6 km/h 37.0 mph /  59.5 km/h 76 % 0.0 in /  0 mm
02:13 8.1 °F /  -13.3 °C 3.9 °F /  -15.6 °C 1000.9 in /  33890.5 hPa WSW 36.4 mph /  58.6 km/h 37.0 mph /  59.5 km/h 75 % 0.0 in /  0 mm
02:18 7.9 °F /  -13.4 °C 3.8 °F /  -15.7 °C 1000.9 in /  33890.5 hPa West 36.4 mph /  58.6 km/h 36.4 mph /  58.6 km/h 75 % 0.0 in /  0 mm
02:23 7.8 °F /  -13.4 °C 3.5 °F /  -15.8 °C 1000.9 in /  33890.5 hPa West 50.4 mph /  81.1 km/h 50.4 mph /  81.1 km/h 74 % 0.0 in /  0 mm
02:28 7.7 °F /  -13.5 °C 3.2 °F /  -16 °C 1000.9 in /  33890.5 hPa West 50.4 mph /  81.1 km/h 50.4 mph /  81.1 km/h 73 % 0.0 in /  0 mm
02:33 7.7 °F /  -13.5 °C 2.9 °F /  -16.2 °C 1000.9 in /  33890.5 hPa West 50.4 mph /  81.1 km/h 50.4 mph /  81.1 km/h 72 % 0.0 in /  0 mm
02:38 7.6 °F /  -13.6 °C 2.8 °F /  -16.2 °C 1001.9 in /  33924.3 hPa West 50.4 mph /  81.1 km/h 50.4 mph /  81.1 km/h 72 % 0.0 in /  0 mm
02:44 7.4 °F /  -13.7 °C 2.7 °F /  -16.3 °C 1001.9 in /  33924.3 hPa West 39.3 mph /  63.2 km/h 50.4 mph /  81.1 km/h 72 % 0.0 in /  0 mm
02:49 7.3 °F /  -13.7 °C 2.4 °F /  -16.4 °C 1001.9 in /  33924.3 hPa WNW 30.6 mph /  49.2 km/h 39.3 mph /  63.2 km/h 71 % 0.0 in /  0 mm
02:54 7.3 °F /  -13.7 °C 1.9 °F /  -16.7 °C 1001.9 in /  33924.3 hPa WNW 30.6 mph /  49.2 km/h 39.3 mph /  63.2 km/h 69 % 0.0 in /  0 mm
02:59 7.3 °F /  -13.7 °C 1.5 °F /  -16.9 °C 1001.9 in /  33924.3 hPa WNW 30.6 mph /  49.2 km/h 30.6 mph /  49.2 km/h 67 % 0.0 in /  0 mm
03:04 7.1 °F /  -13.8 °C 1.8 °F /  -16.8 °C 1001.9 in /  33924.3 hPa West 32.0 mph /  51.5 km/h 32.0 mph /  51.5 km/h 69 % 0.0 in /  0 mm
03:09 6.9 °F /  -13.9 °C 1.2 °F /  -17.1 °C 1001.9 in /  33924.3 hPa West 31.4 mph /  50.5 km/h 43.9 mph /  70.6 km/h 67 % 0.0 in /  0 mm
03:14 6.9 °F /  -13.9 °C 1.1 °F /  -17.2 °C 1001.9 in /  33924.3 hPa West 31.4 mph /  50.5 km/h 43.9 mph /  70.6 km/h 66 % 0.0 in /  0 mm
03:19 6.9 °F /  -13.9 °C 0.6 °F /  -17.4 °C 1001.9 in /  33924.3 hPa SW 32.0 mph /  51.5 km/h 47.5 mph /  76.4 km/h 64 % 0.0 in /  0 mm
03:24 6.9 °F /  -13.9 °C 0.4 °F /  -17.6 °C 1001.9 in /  33924.3 hPa West 41.7 mph /  67.1 km/h 47.5 mph /  76.4 km/h 63 % 0.0 in /  0 mm
03:29 6.8 °F /  -14 °C 0.3 °F /  -17.6 °C 1001.9 in /  33924.3 hPa West 38.9 mph /  62.6 km/h 41.7 mph /  67.1 km/h 63 % 0.0 in /  0 mm
03:34 6.8 °F /  -14 °C -0.2 °F /  -17.9 °C 1001.9 in /  33924.3 hPa West 36.4 mph /  58.6 km/h 44.2 mph /  71.1 km/h 61 % 0.0 in /  0 mm
03:39 6.8 °F /  -14 °C 0.1 °F /  -17.7 °C 1002.9 in /  33958.2 hPa WSW 24.8 mph /  39.9 km/h 44.2 mph /  71.1 km/h 62 % 0.0 in /  0 mm
03:44 6.8 °F /  -14 °C 0.0 °F /  -17.8 °C 1002.9 in /  33958.2 hPa WSW 32.3 mph /  52 km/h 36.4 mph /  58.6 km/h 62 % 0.0 in /  0 mm
03:49 6.8 °F /  -14 °C 0.1 °F /  -17.7 °C 1002.9 in /  33958.2 hPa West 36.4 mph /  58.6 km/h 37.5 mph /  60.3 km/h 62 % 0.0 in /  0 mm
03:54 6.8 °F /  -14 °C 0.3 °F /  -17.6 °C 1002.9 in /  33958.2 hPa WSW 31.4 mph /  50.5 km/h 37.5 mph /  60.3 km/h 63 % 0.0 in /  0 mm
03:59 6.8 °F /  -14 °C 0.5 °F /  -17.5 °C 1002.9 in /  33958.2 hPa WSW 31.4 mph /  50.5 km/h 36.7 mph /  59.1 km/h 64 % 0.0 in /  0 mm
04:04 6.9 °F /  -13.9 °C 0.6 °F /  -17.4 °C 1002.9 in /  33958.2 hPa West 33.8 mph /  54.4 km/h 33.8 mph /  54.4 km/h 64 % 0.0 in /  0 mm
04:09 6.9 °F /  -13.9 °C 0.8 °F /  -17.3 °C 1002.9 in /  33958.2 hPa WSW 43.6 mph /  70.2 km/h 43.6 mph /  70.2 km/h 65 % 0.0 in /  0 mm
04:14 7.2 °F /  -13.8 °C 0.8 °F /  -17.3 °C 1002.9 in /  33958.2 hPa West 24.8 mph /  39.9 km/h 43.6 mph /  70.2 km/h 64 % 0.0 in /  0 mm
04:19 7.1 °F /  -13.8 °C 0.9 °F /  -17.3 °C 1002.9 in /  33958.2 hPa West 37.5 mph /  60.3 km/h 43.6 mph /  70.2 km/h 65 % 0.0 in /  0 mm
04:24 7.1 °F /  -13.8 °C 0.7 °F /  -17.4 °C 1002.9 in /  33958.2 hPa West 48.6 mph /  78.2 km/h 49.2 mph /  79.2 km/h 64 % 0.0 in /  0 mm
04:29 6.9 °F /  -13.9 °C 0.6 °F /  -17.4 °C 1002.9 in /  33958.2 hPa West 28.5 mph /  45.9 km/h 49.2 mph /  79.2 km/h 64 % 0.0 in /  0 mm
04:34 6.9 °F /  -13.9 °C 0.6 °F /  -17.4 °C 1002.9 in /  33958.2 hPa WSW 31.7 mph /  51 km/h 41.7 mph /  67.1 km/h 64 % 0.0 in /  0 mm
04:39 6.9 °F /  -13.9 °C 0.8 °F /  -17.3 °C 1002.9 in /  33958.2 hPa West 37.8 mph /  60.8 km/h 41.0 mph /  66 km/h 65 % 0.0 in /  0 mm
04:44 6.9 °F /  -13.9 °C 0.6 °F /  -17.4 °C 1002.9 in /  33958.2 hPa West 44.2 mph /  71.1 km/h 47.5 mph /  76.4 km/h 64 % 0.0 in /  0 mm
04:49 6.9 °F /  -13.9 °C 0.4 °F /  -17.6 °C 1002.9 in /  33958.2 hPa West 36.0 mph /  57.9 km/h 47.5 mph /  76.4 km/h 63 % 0.0 in /  0 mm
04:54 7.1 °F /  -13.8 °C 0.5 °F /  -17.5 °C 1001.9 in /  33924.3 hPa West 38.5 mph /  62 km/h 44.2 mph /  71.1 km/h 63 % 0.0 in /  0 mm
04:59 7.1 °F /  -13.8 °C 0.3 °F /  -17.6 °C 1001.9 in /  33924.3 hPa WSW 43.6 mph /  70.2 km/h 43.9 mph /  70.6 km/h 62 % 0.0 in /  0 mm
05:00 7.1 °F /  -13.8 °C 0.3 °F /  -17.6 °C 1001.9 in /  33924.3 hPa West 31.7 mph /  51 km/h 43.9 mph /  70.6 km/h 62 % 0.0 in /  0 mm
05:05 6.9 °F /  -13.9 °C 0.4 °F /  -17.6 °C 1001.9 in /  33924.3 hPa West 32.0 mph /  51.5 km/h 43.6 mph /  70.2 km/h 63 % 0.0 in /  0 mm
05:10 7.1 °F /  -13.8 °C 0.7 °F /  -17.4 °C 1002.9 in /  33958.2 hPa WSW 28.5 mph /  45.9 km/h 35.2 mph /  56.6 km/h 64 % 0.0 in /  0 mm
05:15 6.9 °F /  -13.9 °C 0.8 °F /  -17.3 °C 1002.9 in /  33958.2 hPa West 33.1 mph /  53.3 km/h 35.2 mph /  56.6 km/h 65 % 0.0 in /  0 mm
05:20 7.1 °F /  -13.8 °C 0.9 °F /  -17.3 °C 1002.9 in /  33958.2 hPa WSW 28.0 mph /  45.1 km/h 38.1 mph /  61.3 km/h 65 % 0.0 in /  0 mm
05:25 7.2 °F /  -13.8 °C 0.3 °F /  -17.6 °C 1003.9 in /  33992.1 hPa West 37.0 mph /  59.5 km/h 40.7 mph /  65.5 km/h 62 % 0.0 in /  0 mm
05:30 7.2 °F /  -13.8 °C 0.3 °F /  -17.6 °C 1003.9 in /  33992.1 hPa WSW 37.8 mph /  60.8 km/h 44.6 mph /  71.8 km/h 62 % 0.0 in /  0 mm
05:35 7.3 °F /  -13.7 °C 0.2 °F /  -17.7 °C 1003.9 in /  33992.1 hPa WSW 46.5 mph /  74.8 km/h 52.6 mph /  84.6 km/h 61 % 0.0 in /  0 mm
05:40 7.3 °F /  -13.7 °C -0.2 °F /  -17.9 °C 1003.9 in /  33992.1 hPa South 37.8 mph /  60.8 km/h 52.6 mph /  84.6 km/h 59 % 0.0 in /  0 mm
05:45 7.3 °F /  -13.7 °C -0.7 °F /  -18.2 °C 1003.9 in /  33992.1 hPa SSW 42.5 mph /  68.4 km/h 48.9 mph /  78.7 km/h 57 % 0.0 in /  0 mm
05:50 7.3 °F /  -13.7 °C -0.7 °F /  -18.2 °C 1003.9 in /  33992.1 hPa WSW 45.1 mph /  72.6 km/h 48.9 mph /  78.7 km/h 57 % 0.0 in /  0 mm
05:55 7.3 °F /  -13.7 °C -0.7 °F /  -18.2 °C 1003.9 in /  33992.1 hPa WNW 22.7 mph /  36.5 km/h 48.3 mph /  77.7 km/h 57 % 0.0 in /  0 mm
06:00 7.2 °F /  -13.8 °C -0.8 °F /  -18.2 °C 1003.9 in /  33992.1 hPa West 48.3 mph /  77.7 km/h 48.6 mph /  78.2 km/h 57 % 0.0 in /  0 mm
06:05 7.2 °F /  -13.8 °C -0.6 °F /  -18.1 °C 1003.9 in /  33992.1 hPa West 38.5 mph /  62 km/h 48.6 mph /  78.2 km/h 58 % 0.0 in /  0 mm
06:10 7.1 °F /  -13.8 °C -0.7 °F /  -18.2 °C 1003.9 in /  33992.1 hPa West 28.5 mph /  45.9 km/h 47.1 mph /  75.8 km/h 58 % 0.0 in /  0 mm
06:15 7.1 °F /  -13.8 °C -0.7 °F /  -18.2 °C 1003.9 in /  33992.1 hPa West 32.0 mph /  51.5 km/h 47.1 mph /  75.8 km/h 58 % 0.0 in /  0 mm
06:16 7.1 °F /  -13.8 °C -0.7 °F /  -18.2 °C 1003.9 in /  33992.1 hPa West 32.0 mph /  51.5 km/h 47.1 mph /  75.8 km/h 58 % 0.0 in /  0 mm
06:21 7.1 °F /  -13.8 °C -0.4 °F /  -18 °C 1003.9 in /  33992.1 hPa West 27.7 mph /  44.6 km/h 37.5 mph /  60.3 km/h 59 % 0.0 in /  0 mm
06:26 6.9 °F /  -13.9 °C -0.5 °F /  -18.1 °C 1005.0 in /  34029.3 hPa WSW 30.2 mph /  48.6 km/h 36.7 mph /  59.1 km/h 59 % 0.0 in /  0 mm
06:31 6.8 °F /  -14 °C -0.4 °F /  -18 °C 1005.0 in /  34029.3 hPa West 36.0 mph /  57.9 km/h 36.7 mph /  59.1 km/h 60 % 0.0 in /  0 mm
06:36 6.9 °F /  -13.9 °C -0.7 °F /  -18.2 °C 1005.0 in /  34029.3 hPa WSW 36.4 mph /  58.6 km/h 51.5 mph /  82.9 km/h 58 % 0.0 in /  0 mm
06:41 6.9 °F /  -13.9 °C -0.7 °F /  -18.2 °C 1003.9 in /  33992.1 hPa WSW 30.9 mph /  49.7 km/h 51.5 mph /  82.9 km/h 58 % 0.0 in /  0 mm
06:46 6.9 °F /  -13.9 °C -1.0 °F /  -18.3 °C 1003.9 in /  33992.1 hPa West 35.6 mph /  57.3 km/h 48.3 mph /  77.7 km/h 57 % 0.0 in /  0 mm
06:51 6.8 °F /  -14 °C -0.8 °F /  -18.2 °C 1003.9 in /  33992.1 hPa West 32.3 mph /  52 km/h 48.3 mph /  77.7 km/h 58 % 0.0 in /  0 mm
06:56 6.8 °F /  -14 °C -0.9 °F /  -18.3 °C 1005.0 in /  34029.3 hPa West 31.7 mph /  51 km/h 48.3 mph /  77.7 km/h 58 % 0.0 in /  0 mm
07:01 6.8 °F /  -14 °C -1.1 °F /  -18.4 °C 1005.0 in /  34029.3 hPa West 36.0 mph /  57.9 km/h 42.2 mph /  67.9 km/h 57 % 0.0 in /  0 mm
07:06 6.8 °F /  -14 °C -0.8 °F /  -18.2 °C 1005.0 in /  34029.3 hPa West 31.7 mph /  51 km/h 46.0 mph /  74 km/h 58 % 0.0 in /  0 mm
07:11 6.8 °F /  -14 °C -0.4 °F /  -18 °C 1005.0 in /  34029.3 hPa West 22.7 mph /  36.5 km/h 46.0 mph /  74 km/h 60 % 0.0 in /  0 mm
07:16 6.8 °F /  -14 °C -0.7 °F /  -18.2 °C 1005.0 in /  34029.3 hPa West 40.4 mph /  65 km/h 40.4 mph /  65 km/h 59 % 0.0 in /  0 mm
07:21 6.8 °F /  -14 °C -0.7 °F /  -18.2 °C 1005.0 in /  34029.3 hPa WSW 36.0 mph /  57.9 km/h 40.4 mph /  65 km/h 59 % 0.0 in /  0 mm
07:26 6.8 °F /  -14 °C -0.9 °F /  -18.3 °C 1006.0 in /  34063.2 hPa SW 43.6 mph /  70.2 km/h 43.6 mph /  70.2 km/h 58 % 0.0 in /  0 mm
07:31 6.8 °F /  -14 °C -1.3 °F /  -18.5 °C 1006.0 in /  34063.2 hPa WSW 44.2 mph /  71.1 km/h 48.9 mph /  78.7 km/h 56 % 0.0 in /  0 mm
07:36 6.8 °F /  -14 °C -1.3 °F /  -18.5 °C 1006.0 in /  34063.2 hPa WSW 22.4 mph /  36 km/h 53.3 mph /  85.8 km/h 56 % 0.0 in /  0 mm
07:41 6.8 °F /  -14 °C -1.2 °F /  -18.4 °C 1006.0 in /  34063.2 hPa West 40.4 mph /  65 km/h 53.3 mph /  85.8 km/h 57 % 0.0 in /  0 mm
07:46 6.8 °F /  -14 °C -0.9 °F /  -18.3 °C 1006.0 in /  34063.2 hPa West 16.9 mph /  27.2 km/h 40.4 mph /  65 km/h 58 % 0.0 in /  0 mm
07:51 6.7 °F /  -14.1 °C -0.8 °F /  -18.2 °C 1006.0 in /  34063.2 hPa WSW 23.8 mph /  38.3 km/h 40.4 mph /  65 km/h 59 % 0.0 in /  0 mm
07:56 6.6 °F /  -14.1 °C -0.9 °F /  -18.3 °C 1007.0 in /  34097 hPa West 24.8 mph /  39.9 km/h 37.8 mph /  60.8 km/h 59 % 0.0 in /  0 mm
08:01 6.7 °F /  -14.1 °C -0.6 °F /  -18.1 °C 1007.0 in /  34097 hPa West 20.9 mph /  33.6 km/h 36.7 mph /  59.1 km/h 60 % 0.0 in /  0 mm
08:06 6.7 °F /  -14.1 °C -0.3 °F /  -17.9 °C 1007.0 in /  34097 hPa WSW 26.2 mph /  42.2 km/h 36.0 mph /  57.9 km/h 61 % 0.0 in /  0 mm
08:11 6.7 °F /  -14.1 °C -0.3 °F /  -17.9 °C 1007.0 in /  34097 hPa WSW 25.9 mph /  41.7 km/h 38.1 mph /  61.3 km/h 61 % 0.0 in /  0 mm
08:16 6.8 °F /  -14 °C -0.2 °F /  -17.9 °C 1007.0 in /  34097 hPa West 24.5 mph /  39.4 km/h 38.1 mph /  61.3 km/h 61 % 0.0 in /  0 mm
08:21 6.8 °F /  -14 °C 0.1 °F /  -17.7 °C 1007.0 in /  34097 hPa WSW 27.4 mph /  44.1 km/h 38.1 mph /  61.3 km/h 62 % 0.0 in /  0 mm
08:26 6.9 °F /  -13.9 °C 0.4 °F /  -17.6 °C 1006.0 in /  34063.2 hPa WSW 17.7 mph /  28.5 km/h 37.0 mph /  59.5 km/h 63 % 0.0 in /  0 mm
08:31 6.9 °F /  -13.9 °C 0.4 °F /  -17.6 °C 1006.0 in /  34063.2 hPa WSW 20.9 mph /  33.6 km/h 33.1 mph /  53.3 km/h 63 % 0.0 in /  0 mm
08:33 7.1 °F /  -13.8 °C 0.7 °F /  -17.4 °C 1006.0 in /  34063.2 hPa West 26.2 mph /  42.2 km/h 33.1 mph /  53.3 km/h 64 % 0.0 in /  0 mm
08:38 7.3 °F /  -13.7 °C 0.9 °F /  -17.3 °C 1007.0 in /  34097 hPa WSW 36.0 mph /  57.9 km/h 47.1 mph /  75.8 km/h 64 % 0.0 in /  0 mm
08:43 7.3 °F /  -13.7 °C 1.2 °F /  -17.1 °C 1007.0 in /  34097 hPa West 26.7 mph /  43 km/h 47.1 mph /  75.8 km/h 65 % 0.0 in /  0 mm
08:48 7.6 °F /  -13.6 °C 0.9 °F /  -17.3 °C 1007.0 in /  34097 hPa West 26.7 mph /  43 km/h 42.2 mph /  67.9 km/h 63 % 0.0 in /  0 mm
08:53 7.7 °F /  -13.5 °C 1.1 °F /  -17.2 °C 1007.0 in /  34097 hPa West 17.2 mph /  27.7 km/h 37.8 mph /  60.8 km/h 63 % 0.0 in /  0 mm
08:58 7.7 °F /  -13.5 °C 1.1 °F /  -17.2 °C 1007.0 in /  34097 hPa West 37.8 mph /  60.8 km/h 37.8 mph /  60.8 km/h 63 % 0.0 in /  0 mm
09:03 7.8 °F /  -13.4 °C 1.0 °F /  -17.2 °C 1007.0 in /  34097 hPa WSW 36.7 mph /  59.1 km/h 40.7 mph /  65.5 km/h 62 % 0.0 in /  0 mm
09:08 7.8 °F /  -13.4 °C 1.2 °F /  -17.1 °C 1008.0 in /  34130.9 hPa West 17.7 mph /  28.5 km/h 40.7 mph /  65.5 km/h 63 % 0.0 in /  0 mm
09:13 7.9 °F /  -13.4 °C 1.1 °F /  -17.2 °C 1008.0 in /  34130.9 hPa West 36.7 mph /  59.1 km/h 36.7 mph /  59.1 km/h 62 % 0.0 in /  0 mm
09:18 8.1 °F /  -13.3 °C 1.2 °F /  -17.1 °C 1008.0 in /  34130.9 hPa WSW 20.9 mph /  33.6 km/h 36.7 mph /  59.1 km/h 62 % 0.0 in /  0 mm
09:23 8.1 °F /  -13.3 °C 0.8 °F /  -17.3 °C 1008.0 in /  34130.9 hPa West 38.1 mph /  61.3 km/h 41.7 mph /  67.1 km/h 60 % 0.0 in /  0 mm
09:28 8.2 °F /  -13.2 °C 1.2 °F /  -17.1 °C 1008.0 in /  34130.9 hPa West 28.5 mph /  45.9 km/h 41.7 mph /  67.1 km/h 61 % 0.0 in /  0 mm
09:33 8.3 °F /  -13.2 °C 1.2 °F /  -17.1 °C 1008.0 in /  34130.9 hPa WSW 38.5 mph /  62 km/h 39.6 mph /  63.7 km/h 61 % 0.0 in /  0 mm
09:38 8.4 °F /  -13.1 °C 1.1 °F /  -17.2 °C 1009.0 in /  34164.7 hPa WSW 42.8 mph /  68.9 km/h 42.8 mph /  68.9 km/h 60 % 0.0 in /  0 mm
09:43 8.5 °F /  -13.1 °C 0.9 °F /  -17.3 °C 1009.0 in /  34164.7 hPa West 32.0 mph /  51.5 km/h 55.8 mph /  89.8 km/h 59 % 0.0 in /  0 mm
09:48 8.7 °F /  -12.9 °C 1.4 °F /  -17 °C 1009.0 in /  34164.7 hPa West 43.1 mph /  69.4 km/h 55.8 mph /  89.8 km/h 60 % 0.0 in /  0 mm
09:53 8.8 °F /  -12.9 °C 0.8 °F /  -17.3 °C 1009.0 in /  34164.7 hPa West 32.8 mph /  52.8 km/h 51.2 mph /  82.4 km/h 57 % 0.0 in /  0 mm
09:58 8.9 °F /  -12.8 °C 0.8 °F /  -17.3 °C 1009.0 in /  34164.7 hPa WSW 36.7 mph /  59.1 km/h 51.2 mph /  82.4 km/h 57 % 0.0 in /  0 mm
10:03 8.9 °F /  -12.8 °C 0.8 °F /  -17.3 °C 1009.0 in /  34164.7 hPa WSW 42.5 mph /  68.4 km/h 45.1 mph /  72.6 km/h 57 % 0.0 in /  0 mm
10:08 9.1 °F /  -12.7 °C 0.8 °F /  -17.3 °C 1009.0 in /  34164.7 hPa West 34.3 mph /  55.2 km/h 47.5 mph /  76.4 km/h 56 % 0.0 in /  0 mm
10:13 9.1 °F /  -12.7 °C 0.8 °F /  -17.3 °C 1009.0 in /  34164.7 hPa West 43.9 mph /  70.6 km/h 47.5 mph /  76.4 km/h 56 % 0.0 in /  0 mm
10:18 9.1 °F /  -12.7 °C 0.6 °F /  -17.4 °C 1009.0 in /  34164.7 hPa West 38.9 mph /  62.6 km/h 48.3 mph /  77.7 km/h 55 % 0.0 in /  0 mm
10:23 9.3 °F /  -12.6 °C 0.9 °F /  -17.3 °C 1009.0 in /  34164.7 hPa West 37.5 mph /  60.3 km/h 48.3 mph /  77.7 km/h 56 % 0.0 in /  0 mm
10:28 9.3 °F /  -12.6 °C 0.7 °F /  -17.4 °C 1009.0 in /  34164.7 hPa West 37.5 mph /  60.3 km/h 55.3 mph /  89 km/h 55 % 0.0 in /  0 mm
10:33 9.4 °F /  -12.6 °C 1.3 °F /  -17.1 °C 1009.0 in /  34164.7 hPa WSW 37.5 mph /  60.3 km/h 55.3 mph /  89 km/h 57 % 0.0 in /  0 mm
10:35 9.4 °F /  -12.6 °C 1.1 °F /  -17.2 °C 1009.0 in /  34164.7 hPa NW 24.8 mph /  39.9 km/h 55.3 mph /  89 km/h 56 % 0.0 in /  0 mm
10:40 9.5 °F /  -12.5 °C 1.2 °F /  -17.1 °C 1009.0 in /  34164.7 hPa West 52.1 mph /  83.8 km/h 52.1 mph /  83.8 km/h 56 % 0.0 in /  0 mm
10:45 9.7 °F /  -12.4 °C 1.1 °F /  -17.2 °C 1009.0 in /  34164.7 hPa West 41.7 mph /  67.1 km/h 52.1 mph /  83.8 km/h 55 % 0.0 in /  0 mm
10:50 9.6 °F /  -12.4 °C 0.7 °F /  -17.4 °C 1009.0 in /  34164.7 hPa WSW 30.2 mph /  48.6 km/h 50.0 mph /  80.5 km/h 54 % 0.0 in /  0 mm
10:55 9.7 °F /  -12.4 °C 1.1 °F /  -17.2 °C 1009.0 in /  34164.7 hPa West 26.7 mph /  43 km/h 50.0 mph /  80.5 km/h 55 % 0.0 in /  0 mm
11:00 9.8 °F /  -12.3 °C 0.4 °F /  -17.6 °C 1009.0 in /  34164.7 hPa West 38.1 mph /  61.3 km/h 55.8 mph /  89.8 km/h 52 % 0.0 in /  0 mm
11:05 9.9 °F /  -12.3 °C 0.8 °F /  -17.3 °C 1009.0 in /  34164.7 hPa West 37.8 mph /  60.8 km/h 55.8 mph /  89.8 km/h 53 % 0.0 in /  0 mm
11:10 9.9 °F /  -12.3 °C 0.8 °F /  -17.3 °C 1010.0 in /  34198.6 hPa West 42.2 mph /  67.9 km/h 46.8 mph /  75.3 km/h 53 % 0.0 in /  0 mm
11:15 9.6 °F /  -12.4 °C 0.2 °F /  -17.7 °C 1010.0 in /  34198.6 hPa West 17.2 mph /  27.7 km/h 47.9 mph /  77.1 km/h 52 % 0.0 in /  0 mm
11:20 9.5 °F /  -12.5 °C 0.4 °F /  -17.6 °C 1010.0 in /  34198.6 hPa West 27.7 mph /  44.6 km/h 47.9 mph /  77.1 km/h 53 % 0.0 in /  0 mm
11:25 9.3 °F /  -12.6 °C 0.2 °F /  -17.7 °C 1010.0 in /  34198.6 hPa WNW 32.8 mph /  52.8 km/h 59.4 mph /  95.6 km/h 53 % 0.0 in /  0 mm
11:30 9.2 °F /  -12.7 °C 0.4 °F /  -17.6 °C 1010.0 in /  34198.6 hPa West 37.5 mph /  60.3 km/h 59.4 mph /  95.6 km/h 54 % 0.0 in /  0 mm
11:35 9.2 °F /  -12.7 °C 0.4 °F /  -17.6 °C 1010.0 in /  34198.6 hPa West 38.5 mph /  62 km/h 48.9 mph /  78.7 km/h 54 % 0.0 in /  0 mm
11:40 9.4 °F /  -12.6 °C 0.8 °F /  -17.3 °C 1010.0 in /  34198.6 hPa West 21.2 mph /  34.1 km/h 48.6 mph /  78.2 km/h 55 % 0.0 in /  0 mm
11:45 9.4 °F /  -12.6 °C 0.8 °F /  -17.3 °C 1010.0 in /  34198.6 hPa WSW 31.7 mph /  51 km/h 46.0 mph /  74 km/h 55 % 0.0 in /  0 mm
11:50 9.5 °F /  -12.5 °C 0.9 °F /  -17.3 °C 1010.0 in /  34198.6 hPa WNW 36.4 mph /  58.6 km/h 46.0 mph /  74 km/h 55 % 0.0 in /  0 mm
11:55 9.5 °F /  -12.5 °C 0.9 °F /  -17.3 °C 1010.0 in /  34198.6 hPa West 36.0 mph /  57.9 km/h 45.7 mph /  73.5 km/h 55 % 0.0 in /  0 mm
12:00 9.6 °F /  -12.4 °C 0.5 °F /  -17.5 °C 1010.0 in /  34198.6 hPa West 23.8 mph /  38.3 km/h 45.7 mph /  73.5 km/h 53 % 0.0 in /  0 mm
12:05 9.6 °F /  -12.4 °C 0.5 °F /  -17.5 °C 1010.0 in /  34198.6 hPa West 36.0 mph /  57.9 km/h 52.1 mph /  83.8 km/h 53 % 0.0 in /  0 mm
12:10 10.1 °F /  -12.2 °C 1.2 °F /  -17.1 °C 1011.1 in /  34235.8 hPa West 36.7 mph /  59.1 km/h 52.1 mph /  83.8 km/h 54 % 0.0 in /  0 mm
12:15 10.2 °F /  -12.1 °C 1.0 °F /  -17.2 °C 1011.1 in /  34235.8 hPa West 29.1 mph /  46.8 km/h 48.6 mph /  78.2 km/h 53 % 0.0 in /  0 mm
12:20 10.2 °F /  -12.1 °C 1.0 °F /  -17.2 °C 1011.1 in /  34235.8 hPa WNW 40.4 mph /  65 km/h 48.9 mph /  78.7 km/h 53 % 0.0 in /  0 mm
12:25 10.1 °F /  -12.2 °C 0.9 °F /  -17.3 °C 1011.1 in /  34235.8 hPa WSW 28.0 mph /  45.1 km/h 48.9 mph /  78.7 km/h 53 % 0.0 in /  0 mm
12:30 10.0 °F /  -12.2 °C 0.8 °F /  -17.3 °C 1011.1 in /  34235.8 hPa West 42.2 mph /  67.9 km/h 52.9 mph /  85.1 km/h 53 % 0.0 in /  0 mm
12:35 10.1 °F /  -12.2 °C 0.7 °F /  -17.4 °C 1011.1 in /  34235.8 hPa WNW 28.5 mph /  45.9 km/h 52.9 mph /  85.1 km/h 52 % 0.0 in /  0 mm
12:40 10.2 °F /  -12.1 °C 1.3 °F /  -17.1 °C 1011.1 in /  34235.8 hPa West 37.0 mph /  59.5 km/h 52.6 mph /  84.6 km/h 54 % 0.0 in /  0 mm
12:45 10.0 °F /  -12.2 °C 0.8 °F /  -17.3 °C 1011.1 in /  34235.8 hPa WSW 37.5 mph /  60.3 km/h 38.5 mph /  62 km/h 53 % 0.0 in /  0 mm
12:50 9.9 °F /  -12.3 °C 1.0 °F /  -17.2 °C 1011.1 in /  34235.8 hPa WSW 36.7 mph /  59.1 km/h 41.4 mph /  66.6 km/h 54 % 0.0 in /  0 mm
12:55 10.0 °F /  -12.2 °C 1.1 °F /  -17.2 °C 1010.0 in /  34198.6 hPa West 31.4 mph /  50.5 km/h 47.5 mph /  76.4 km/h 54 % 0.0 in /  0 mm
13:00 10.0 °F /  -12.2 °C 0.6 °F /  -17.4 °C 1010.0 in /  34198.6 hPa WSW 27.7 mph /  44.6 km/h 47.5 mph /  76.4 km/h 52 % 0.0 in /  0 mm
13:05 10.0 °F /  -12.2 °C 0.8 °F /  -17.3 °C 1010.0 in /  34198.6 hPa WSW 36.7 mph /  59.1 km/h 42.2 mph /  67.9 km/h 53 % 0.0 in /  0 mm
13:10 9.9 °F /  -12.3 °C 0.8 °F /  -17.3 °C 1011.1 in /  34235.8 hPa West 23.8 mph /  38.3 km/h 45.7 mph /  73.5 km/h 53 % 0.0 in /  0 mm
13:15 9.9 °F /  -12.3 °C 0.8 °F /  -17.3 °C 1011.1 in /  34235.8 hPa West 34.6 mph /  55.7 km/h 45.7 mph /  73.5 km/h 53 % 0.0 in /  0 mm
13:20 9.9 °F /  -12.3 °C 0.5 °F /  -17.5 °C 1011.1 in /  34235.8 hPa West 29.1 mph /  46.8 km/h 43.6 mph /  70.2 km/h 52 % 0.0 in /  0 mm
13:25 9.9 °F /  -12.3 °C 0.8 °F /  -17.3 °C 1011.1 in /  34235.8 hPa West 28.0 mph /  45.1 km/h 43.6 mph /  70.2 km/h 53 % 0.0 in /  0 mm
13:30 9.9 °F /  -12.3 °C 0.5 °F /  -17.5 °C 1011.1 in /  34235.8 hPa West 36.4 mph /  58.6 km/h 51.2 mph /  82.4 km/h 52 % 0.0 in /  0 mm
13:35 10.3 °F /  -12.1 °C 1.1 °F /  -17.2 °C 1011.1 in /  34235.8 hPa WSW 33.8 mph /  54.4 km/h 51.2 mph /  82.4 km/h 53 % 0.0 in /  0 mm
13:40 10.7 °F /  -11.8 °C 1.7 °F /  -16.8 °C 1011.1 in /  34235.8 hPa West 38.1 mph /  61.3 km/h 45.7 mph /  73.5 km/h 54 % 0.0 in /  0 mm
13:45 10.3 °F /  -12.1 °C 1.1 °F /  -17.2 °C 1011.1 in /  34235.8 hPa WSW 28.0 mph /  45.1 km/h 45.7 mph /  73.5 km/h 53 % 0.0 in /  0 mm
13:50 9.9 °F /  -12.3 °C 0.5 °F /  -17.5 °C 1011.1 in /  34235.8 hPa West 28.5 mph /  45.9 km/h 43.1 mph /  69.4 km/h 52 % 0.0 in /  0 mm
13:55 9.7 °F /  -12.4 °C 0.6 °F /  -17.4 °C 1012.1 in /  34269.7 hPa WSW 38.5 mph /  62 km/h 45.1 mph /  72.6 km/h 53 % 0.0 in /  0 mm
14:00 9.7 °F /  -12.4 °C 0.6 °F /  -17.4 °C 1012.1 in /  34269.7 hPa West 28.0 mph /  45.1 km/h 45.1 mph /  72.6 km/h 53 % 0.0 in /  0 mm
14:05 9.9 °F /  -12.3 °C 1.0 °F /  -17.2 °C 1012.1 in /  34269.7 hPa WSW 20.9 mph /  33.6 km/h 41.0 mph /  66 km/h 54 % 0.0 in /  0 mm
14:10 9.7 °F /  -12.4 °C 0.6 °F /  -17.4 °C 1012.1 in /  34269.7 hPa West 26.2 mph /  42.2 km/h 40.7 mph /  65.5 km/h 53 % 0.0 in /  0 mm
14:15 9.5 °F /  -12.5 °C 0.4 °F /  -17.6 °C 1012.1 in /  34269.7 hPa West 28.0 mph /  45.1 km/h 40.7 mph /  65.5 km/h 53 % 0.0 in /  0 mm
14:20 9.9 °F /  -12.3 °C 1.0 °F /  -17.2 °C 1012.1 in /  34269.7 hPa WSW 26.7 mph /  43 km/h 37.8 mph /  60.8 km/h 54 % 0.0 in /  0 mm
14:25 9.9 °F /  -12.3 °C 0.8 °F /  -17.3 °C 1012.1 in /  34269.7 hPa WSW 32.0 mph /  51.5 km/h 37.0 mph /  59.5 km/h 53 % 0.0 in /  0 mm
14:30 9.8 °F /  -12.3 °C 0.7 °F /  -17.4 °C 1012.1 in /  34269.7 hPa West 32.0 mph /  51.5 km/h 37.0 mph /  59.5 km/h 53 % 0.0 in /  0 mm
14:35 9.9 °F /  -12.3 °C 0.8 °F /  -17.3 °C 1012.1 in /  34269.7 hPa West 31.7 mph /  51 km/h 40.7 mph /  65.5 km/h 53 % 0.0 in /  0 mm
14:40 9.9 °F /  -12.3 °C 0.8 °F /  -17.3 °C 1013.1 in /  34303.6 hPa West 33.1 mph /  53.3 km/h 40.7 mph /  65.5 km/h 53 % 0.0 in /  0 mm
14:45 9.9 °F /  -12.3 °C 0.8 °F /  -17.3 °C 1013.1 in /  34303.6 hPa West 32.0 mph /  51.5 km/h 38.5 mph /  62 km/h 53 % 0.0 in /  0 mm
14:51 9.9 °F /  -12.3 °C 0.8 °F /  -17.3 °C 1013.1 in /  34303.6 hPa West 35.6 mph /  57.3 km/h 38.5 mph /  62 km/h 53 % 0.0 in /  0 mm
14:56 9.9 °F /  -12.3 °C 0.8 °F /  -17.3 °C 1013.1 in /  34303.6 hPa WSW 17.2 mph /  27.7 km/h 35.6 mph /  57.3 km/h 53 % 0.0 in /  0 mm
15:01 9.9 °F /  -12.3 °C 0.8 °F /  -17.3 °C 1013.1 in /  34303.6 hPa West 20.9 mph /  33.6 km/h 32.3 mph /  52 km/h 53 % 0.0 in /  0 mm
15:06 10.0 °F /  -12.2 °C 0.8 °F /  -17.3 °C 1013.1 in /  34303.6 hPa WSW 28.5 mph /  45.9 km/h 34.3 mph /  55.2 km/h 53 % 0.0 in /  0 mm
15:11 10.1 °F /  -12.2 °C 0.9 °F /  -17.3 °C 1013.1 in /  34303.6 hPa West 17.2 mph /  27.7 km/h 34.3 mph /  55.2 km/h 53 % 0.0 in /  0 mm
15:16 10.1 °F /  -12.2 °C 0.9 °F /  -17.3 °C 1013.1 in /  34303.6 hPa West 28.0 mph /  45.1 km/h 37.5 mph /  60.3 km/h 53 % 0.0 in /  0 mm
15:21 10.5 °F /  -11.9 °C 1.6 °F /  -16.9 °C 1013.1 in /  34303.6 hPa West 25.6 mph /  41.2 km/h 37.5 mph /  60.3 km/h 54 % 0.0 in /  0 mm
15:26 10.4 °F /  -12 °C 1.2 °F /  -17.1 °C 1013.1 in /  34303.6 hPa WSW 28.5 mph /  45.9 km/h 37.5 mph /  60.3 km/h 53 % 0.0 in /  0 mm
15:31 10.7 °F /  -11.8 °C 1.2 °F /  -17.1 °C 1013.1 in /  34303.6 hPa WSW 22.7 mph /  36.5 km/h 38.1 mph /  61.3 km/h 52 % 0.0 in /  0 mm
15:36 10.9 °F /  -11.7 °C 1.4 °F /  -17 °C 1013.1 in /  34303.6 hPa West 24.8 mph /  39.9 km/h 38.1 mph /  61.3 km/h 52 % 0.0 in /  0 mm
15:41 10.6 °F /  -11.9 °C 1.4 °F /  -17 °C 1013.1 in /  34303.6 hPa West 16.9 mph /  27.2 km/h 36.4 mph /  58.6 km/h 53 % 0.0 in /  0 mm
15:46 10.5 °F /  -11.9 °C 1.3 °F /  -17.1 °C 1013.1 in /  34303.6 hPa West 17.7 mph /  28.5 km/h 30.2 mph /  48.6 km/h 53 % 0.0 in /  0 mm
15:51 10.8 °F /  -11.8 °C 1.3 °F /  -17.1 °C 1013.1 in /  34303.6 hPa West 23.8 mph /  38.3 km/h 34.3 mph /  55.2 km/h 52 % 0.0 in /  0 mm
15:56 10.8 °F /  -11.8 °C 1.3 °F /  -17.1 °C 1013.1 in /  34303.6 hPa West 24.8 mph /  39.9 km/h 34.3 mph /  55.2 km/h 52 % 0.0 in /  0 mm
16:01 10.8 °F /  -11.8 °C 1.3 °F /  -17.1 °C 1013.1 in /  34303.6 hPa WSW 24.8 mph /  39.9 km/h 31.7 mph /  51 km/h 52 % 0.0 in /  0 mm
16:06 10.9 °F /  -11.7 °C 1.4 °F /  -17 °C 1013.1 in /  34303.6 hPa West 20.6 mph /  33.2 km/h 31.7 mph /  51 km/h 52 % 0.0 in /  0 mm
16:11 10.8 °F /  -11.8 °C 1.1 °F /  -17.2 °C 1012.1 in /  34269.7 hPa WSW 20.9 mph /  33.6 km/h 36.0 mph /  57.9 km/h 51 % 0.0 in /  0 mm
16:16 10.9 °F /  -11.7 °C 1.4 °F /  -17 °C 1012.1 in /  34269.7 hPa West 16.9 mph /  27.2 km/h 36.0 mph /  57.9 km/h 52 % 0.0 in /  0 mm
16:21 10.9 °F /  -11.7 °C 1.4 °F /  -17 °C 1012.1 in /  34269.7 hPa West 27.7 mph /  44.6 km/h 29.9 mph /  48.1 km/h 52 % 0.0 in /  0 mm
16:26 10.8 °F /  -11.8 °C 1.3 °F /  -17.1 °C 1013.1 in /  34303.6 hPa WSW 27.4 mph /  44.1 km/h 31.7 mph /  51 km/h 52 % 0.0 in /  0 mm
16:31 10.6 °F /  -11.9 °C 1.1 °F /  -17.2 °C 1013.1 in /  34303.6 hPa West 16.3 mph /  26.2 km/h 32.0 mph /  51.5 km/h 52 % 0.0 in /  0 mm
16:36 10.6 °F /  -11.9 °C 1.4 °F /  -17 °C 1013.1 in /  34303.6 hPa West 23.8 mph /  38.3 km/h 32.0 mph /  51.5 km/h 53 % 0.0 in /  0 mm
16:41 10.5 °F /  -11.9 °C 1.3 °F /  -17.1 °C 1013.1 in /  34303.6 hPa WSW 28.8 mph /  46.3 km/h 32.3 mph /  52 km/h 53 % 0.0 in /  0 mm
16:46 10.3 °F /  -12.1 °C 1.1 °F /  -17.2 °C 1013.1 in /  34303.6 hPa West 27.7 mph /  44.6 km/h 32.3 mph /  52 km/h 53 % 0.0 in /  0 mm
16:51 10.2 °F /  -12.1 °C 1.3 °F /  -17.1 °C 1013.1 in /  34303.6 hPa West 31.4 mph /  50.5 km/h 32.0 mph /  51.5 km/h 54 % 0.0 in /  0 mm
16:56 9.9 °F /  -12.3 °C 0.8 °F /  -17.3 °C 1013.1 in /  34303.6 hPa West 15.8 mph /  25.4 km/h 31.4 mph /  50.5 km/h 53 % 0.0 in /  0 mm
17:01 9.9 °F /  -12.3 °C 1.0 °F /  -17.2 °C 1013.1 in /  34303.6 hPa West 21.6 mph /  34.8 km/h 31.4 mph /  50.5 km/h 54 % 0.0 in /  0 mm
17:06 9.8 °F /  -12.3 °C 0.9 °F /  -17.3 °C 1013.1 in /  34303.6 hPa West 20.9 mph /  33.6 km/h 28.5 mph /  45.9 km/h 54 % 0.0 in /  0 mm
17:11 9.7 °F /  -12.4 °C 1.1 °F /  -17.2 °C 1013.1 in /  34303.6 hPa WSW 20.1 mph /  32.3 km/h 24.8 mph /  39.9 km/h 55 % 0.0 in /  0 mm
17:16 9.6 °F /  -12.4 °C 0.7 °F /  -17.4 °C 1013.1 in /  34303.6 hPa WSW 27.7 mph /  44.6 km/h 28.0 mph /  45.1 km/h 54 % 0.0 in /  0 mm
17:21 9.6 °F /  -12.4 °C 0.5 °F /  -17.5 °C 1013.1 in /  34303.6 hPa WSW 25.6 mph /  41.2 km/h 31.7 mph /  51 km/h 53 % 0.0 in /  0 mm
17:26 9.5 °F /  -12.5 °C 0.1 °F /  -17.7 °C 1013.1 in /  34303.6 hPa WSW 28.8 mph /  46.3 km/h 36.7 mph /  59.1 km/h 52 % 0.0 in /  0 mm
17:31 9.3 °F /  -12.6 °C -0.1 °F /  -17.8 °C 1013.1 in /  34303.6 hPa West 24.8 mph /  39.9 km/h 36.7 mph /  59.1 km/h 52 % 0.0 in /  0 mm
17:36 9.2 °F /  -12.7 °C -0.4 °F /  -18 °C 1013.1 in /  34303.6 hPa WSW 23.0 mph /  37 km/h 33.1 mph /  53.3 km/h 51 % 0.0 in /  0 mm
17:41 9.1 °F /  -12.7 °C -0.2 °F /  -17.9 °C 1013.1 in /  34303.6 hPa West 32.0 mph /  51.5 km/h 32.0 mph /  51.5 km/h 52 % 0.0 in /  0 mm
17:46 9.1 °F /  -12.7 °C 0.0 °F /  -17.8 °C 1013.1 in /  34303.6 hPa West 20.1 mph /  32.3 km/h 32.0 mph /  51.5 km/h 53 % 0.0 in /  0 mm
17:51 8.9 °F /  -12.8 °C 0.1 °F /  -17.7 °C 1013.1 in /  34303.6 hPa WSW 12.6 mph /  20.3 km/h 28.0 mph /  45.1 km/h 54 % 0.0 in /  0 mm
17:56 8.7 °F /  -12.9 °C 0.2 °F /  -17.7 °C 1014.1 in /  34337.4 hPa West 12.2 mph /  19.6 km/h 25.3 mph /  40.7 km/h 55 % 0.0 in /  0 mm
18:01 8.5 °F /  -13.1 °C 0.5 °F /  -17.5 °C 1014.1 in /  34337.4 hPa WSW 13.7 mph /  22 km/h 20.9 mph /  33.6 km/h 57 % 0.0 in /  0 mm
18:06 8.3 °F /  -13.2 °C 0.8 °F /  -17.3 °C 1014.1 in /  34337.4 hPa WSW 20.1 mph /  32.3 km/h 21.2 mph /  34.1 km/h 59 % 0.0 in /  0 mm
18:11 8.3 °F /  -13.2 °C 0.8 °F /  -17.3 °C 1014.1 in /  34337.4 hPa WSW 21.9 mph /  35.2 km/h 28.0 mph /  45.1 km/h 59 % 0.0 in /  0 mm
18:16 8.1 °F /  -13.3 °C 0.8 °F /  -17.3 °C 1014.1 in /  34337.4 hPa WNW 11.9 mph /  19.2 km/h 28.0 mph /  45.1 km/h 60 % 0.0 in /  0 mm
18:21 7.9 °F /  -13.4 °C 0.9 °F /  -17.3 °C 1014.1 in /  34337.4 hPa WSW 20.1 mph /  32.3 km/h 24.5 mph /  39.4 km/h 61 % 0.0 in /  0 mm
18:26 7.9 °F /  -13.4 °C 0.7 °F /  -17.4 °C 1014.1 in /  34337.4 hPa West 20.9 mph /  33.6 km/h 29.1 mph /  46.8 km/h 60 % 0.0 in /  0 mm
18:36 7.6 °F /  -13.6 °C 0.5 °F /  -17.5 °C 1014.1 in /  34337.4 hPa WSW 12.2 mph /  19.6 km/h 23.8 mph /  38.3 km/h 61 % 0.0 in /  0 mm
18:41 7.3 °F /  -13.7 °C 0.7 °F /  -17.4 °C 1014.1 in /  34337.4 hPa WSW 11.9 mph /  19.2 km/h 16.3 mph /  26.2 km/h 63 % 0.0 in /  0 mm
18:46 7.2 °F /  -13.8 °C 1.2 °F /  -17.1 °C 1014.1 in /  34337.4 hPa WSW 14.0 mph /  22.5 km/h 19.5 mph /  31.4 km/h 66 % 0.0 in /  0 mm
18:51 7.1 °F /  -13.8 °C 1.6 °F /  -16.9 °C 1014.1 in /  34337.4 hPa WSW 15.1 mph /  24.3 km/h 20.9 mph /  33.6 km/h 68 % 0.0 in /  0 mm
18:56 6.9 °F /  -13.9 °C 1.4 °F /  -17 °C 1014.1 in /  34337.4 hPa WSW 9.3 mph /  15 km/h 20.9 mph /  33.6 km/h 68 % 0.0 in /  0 mm
19:01 6.8 °F /  -14 °C 1.7 °F /  -16.8 °C 1014.1 in /  34337.4 hPa WSW 14.3 mph /  23 km/h 16.6 mph /  26.7 km/h 70 % 0.0 in /  0 mm
19:06 6.7 °F /  -14.1 °C 1.8 °F /  -16.8 °C 1014.1 in /  34337.4 hPa WSW 15.8 mph /  25.4 km/h 16.6 mph /  26.7 km/h 71 % 0.0 in /  0 mm
19:11 6.6 °F /  -14.1 °C 1.7 °F /  -16.8 °C 1014.1 in /  34337.4 hPa SW 12.2 mph /  19.6 km/h 16.6 mph /  26.7 km/h 71 % 0.0 in /  0 mm
19:16 6.6 °F /  -14.1 °C 2.1 °F /  -16.6 °C 1014.1 in /  34337.4 hPa WSW 13.7 mph /  22 km/h 16.6 mph /  26.7 km/h 73 % 0.0 in /  0 mm
19:21 6.4 °F /  -14.2 °C 2.0 °F /  -16.7 °C 1014.1 in /  34337.4 hPa WSW 14.0 mph /  22.5 km/h 19.1 mph /  30.7 km/h 73 % 0.0 in /  0 mm
19:26 6.4 °F /  -14.2 °C 1.9 °F /  -16.7 °C 1014.1 in /  34337.4 hPa WSW 11.6 mph /  18.7 km/h 19.1 mph /  30.7 km/h 73 % 0.0 in /  0 mm
19:31 6.2 °F /  -14.3 °C 1.9 °F /  -16.7 °C 1014.1 in /  34337.4 hPa WSW 10.5 mph /  16.9 km/h 13.7 mph /  22 km/h 74 % 0.0 in /  0 mm
19:36 6.2 °F /  -14.3 °C 1.9 °F /  -16.7 °C 1014.1 in /  34337.4 hPa WSW 8.7 mph /  14 km/h 13.7 mph /  22 km/h 74 % 0.0 in /  0 mm
19:41 6.1 °F /  -14.4 °C 2.0 °F /  -16.7 °C 1015.1 in /  34371.3 hPa WSW 9.7 mph /  15.6 km/h 13.7 mph /  22 km/h 75 % 0.0 in /  0 mm
19:46 6.0 °F /  -14.4 °C 1.9 °F /  -16.7 °C 1015.1 in /  34371.3 hPa WSW 10.1 mph /  16.3 km/h 12.2 mph /  19.6 km/h 75 % 0.0 in /  0 mm
19:51 6.1 °F /  -14.4 °C 2.2 °F /  -16.6 °C 1015.1 in /  34371.3 hPa SW 9.0 mph /  14.5 km/h 14.0 mph /  22.5 km/h 76 % 0.0 in /  0 mm
19:56 6.2 °F /  -14.3 °C 2.4 °F /  -16.4 °C 1015.1 in /  34371.3 hPa SW 9.0 mph /  14.5 km/h 14.0 mph /  22.5 km/h 77 % 0.0 in /  0 mm
20:01 6.3 °F /  -14.3 °C 2.6 °F /  -16.3 °C 1015.1 in /  34371.3 hPa WSW 9.0 mph /  14.5 km/h 12.2 mph /  19.6 km/h 77 % 0.0 in /  0 mm
20:06 6.2 °F /  -14.3 °C 2.4 °F /  -16.4 °C 1015.1 in /  34371.3 hPa WSW 7.9 mph /  12.7 km/h 13.0 mph /  20.9 km/h 77 % 0.0 in /  0 mm
20:11 6.2 °F /  -14.3 °C 2.4 °F /  -16.4 °C 1014.1 in /  34337.4 hPa SW 10.5 mph /  16.9 km/h 13.0 mph /  20.9 km/h 77 % 0.0 in /  0 mm
20:16 6.1 °F /  -14.4 °C 2.3 °F /  -16.5 °C 1014.1 in /  34337.4 hPa WSW 10.1 mph /  16.3 km/h 13.0 mph /  20.9 km/h 77 % 0.0 in /  0 mm
20:21 6.0 °F /  -14.4 °C 2.2 °F /  -16.6 °C 1014.1 in /  34337.4 hPa WSW 9.0 mph /  14.5 km/h 11.9 mph /  19.2 km/h 77 % 0.0 in /  0 mm
20:26 6.0 °F /  -14.4 °C 2.2 °F /  -16.6 °C 1014.1 in /  34337.4 hPa SSW 12.2 mph /  19.6 km/h 12.2 mph /  19.6 km/h 77 % 0.0 in /  0 mm
20:31 6.1 °F /  -14.4 °C 2.3 °F /  -16.5 °C 1014.1 in /  34337.4 hPa SW 9.0 mph /  14.5 km/h 12.2 mph /  19.6 km/h 77 % 0.0 in /  0 mm
20:36 6.1 °F /  -14.4 °C 2.3 °F /  -16.5 °C 1014.1 in /  34337.4 hPa WSW 7.9 mph /  12.7 km/h 12.2 mph /  19.6 km/h 77 % 0.0 in /  0 mm
20:41 6.1 °F /  -14.4 °C 2.3 °F /  -16.5 °C 1014.1 in /  34337.4 hPa WSW 8.7 mph /  14 km/h 11.6 mph /  18.7 km/h 77 % 0.0 in /  0 mm
20:46 6.1 °F /  -14.4 °C 2.3 °F /  -16.5 °C 1014.1 in /  34337.4 hPa SW 8.7 mph /  14 km/h 11.6 mph /  18.7 km/h 77 % 0.0 in /  0 mm
20:51 6.0 °F /  -14.4 °C 2.2 °F /  -16.6 °C 1014.1 in /  34337.4 hPa WSW 8.7 mph /  14 km/h 11.6 mph /  18.7 km/h 77 % 0.0 in /  0 mm
20:56 6.0 °F /  -14.4 °C 2.2 °F /  -16.6 °C 1014.1 in /  34337.4 hPa WSW 7.9 mph /  12.7 km/h 11.6 mph /  18.7 km/h 77 % 0.0 in /  0 mm
21:01 6.0 °F /  -14.4 °C 2.2 °F /  -16.6 °C 1014.1 in /  34337.4 hPa SW 10.5 mph /  16.9 km/h 12.2 mph /  19.6 km/h 77 % 0.0 in /  0 mm
21:06 5.9 °F /  -14.5 °C 2.2 °F /  -16.6 °C 1014.1 in /  34337.4 hPa SW 8.7 mph /  14 km/h 12.2 mph /  19.6 km/h 77 % 0.0 in /  0 mm
21:11 6.0 °F /  -14.4 °C 2.2 °F /  -16.6 °C 1014.1 in /  34337.4 hPa SSW 10.1 mph /  16.3 km/h 11.9 mph /  19.2 km/h 77 % 0.0 in /  0 mm
21:17 6.0 °F /  -14.4 °C 2.2 °F /  -16.6 °C 1014.1 in /  34337.4 hPa WSW 9.0 mph /  14.5 km/h 10.5 mph /  16.9 km/h 77 % 0.0 in /  0 mm
21:22 5.9 °F /  -14.5 °C 2.2 °F /  -16.6 °C 1014.1 in /  34337.4 hPa SSW 7.9 mph /  12.7 km/h 10.1 mph /  16.3 km/h 77 % 0.0 in /  0 mm
21:27 5.8 °F /  -14.6 °C 2.1 °F /  -16.6 °C 1015.1 in /  34371.3 hPa SW 9.0 mph /  14.5 km/h 9.3 mph /  15 km/h 77 % 0.0 in /  0 mm
21:32 5.7 °F /  -14.6 °C 1.9 °F /  -16.7 °C 1015.1 in /  34371.3 hPa SW 7.9 mph /  12.7 km/h 9.7 mph /  15.6 km/h 77 % 0.0 in /  0 mm
21:37 5.8 °F /  -14.6 °C 2.2 °F /  -16.6 °C 1015.1 in /  34371.3 hPa WSW 7.9 mph /  12.7 km/h 10.1 mph /  16.3 km/h 78 % 0.0 in /  0 mm
21:42 5.7 °F /  -14.6 °C 2.2 °F /  -16.6 °C 1014.1 in /  34337.4 hPa SSW 9.7 mph /  15.6 km/h 10.1 mph /  16.3 km/h 78 % 0.0 in /  0 mm
21:47 5.7 °F /  -14.6 °C 2.2 °F /  -16.6 °C 1014.1 in /  34337.4 hPa WSW 7.9 mph /  12.7 km/h 10.1 mph /  16.3 km/h 78 % 0.0 in /  0 mm
21:52 5.7 °F /  -14.6 °C 2.2 °F /  -16.6 °C 1014.1 in /  34337.4 hPa WSW 7.2 mph /  11.6 km/h 11.6 mph /  18.7 km/h 78 % 0.0 in /  0 mm
21:57 5.3 °F /  -14.8 °C 1.6 °F /  -16.9 °C 1015.1 in /  34371.3 hPa Calm   11.6 mph /  18.7 km/h 77 % 0.0 in /  0 mm
22:02 5.2 °F /  -14.9 °C 1.5 °F /  -16.9 °C 1015.1 in /  34371.3 hPa Calm   7.9 mph /  12.7 km/h 77 % 0.0 in /  0 mm
22:07 5.0 °F /  -15 °C 1.5 °F /  -16.9 °C 1015.1 in /  34371.3 hPa Calm   7.6 mph /  12.2 km/h 78 % 0.0 in /  0 mm
22:12 4.9 °F /  -15.1 °C 1.4 °F /  -17 °C 1014.1 in /  34337.4 hPa Calm   4.3 mph /  6.9 km/h 78 % 0.0 in /  0 mm
22:17 4.7 °F /  -15.2 °C 1.2 °F /  -17.1 °C 1014.1 in /  34337.4 hPa Calm   5.0 mph /  8 km/h 78 % 0.0 in /  0 mm
22:22 4.5 °F /  -15.3 °C 1.0 °F /  -17.2 °C 1014.1 in /  34337.4 hPa Calm   5.0 mph /  8 km/h 78 % 0.0 in /  0 mm
22:27 4.3 °F /  -15.4 °C 1.0 °F /  -17.2 °C 1014.1 in /  34337.4 hPa Calm   3.5 mph /  5.6 km/h 79 % 0.0 in /  0 mm
22:32 4.1 °F /  -15.5 °C 0.8 °F /  -17.3 °C 1014.1 in /  34337.4 hPa Calm   2.6 mph /  4.2 km/h 79 % 0.0 in /  0 mm
22:37 4.0 °F /  -15.6 °C 0.7 °F /  -17.4 °C 1014.1 in /  34337.4 hPa Calm     79 % 0.0 in /  0 mm
22:42 3.9 °F /  -15.6 °C 0.8 °F /  -17.3 °C 1014.1 in /  34337.4 hPa Calm     80 % 0.0 in /  0 mm
22:47 3.8 °F /  -15.7 °C 0.8 °F /  -17.3 °C 1014.1 in /  34337.4 hPa Calm   4.3 mph /  6.9 km/h 81 % 0.0 in /  0 mm
22:52 3.7 °F /  -15.7 °C 0.8 °F /  -17.3 °C 1014.1 in /  34337.4 hPa SW 4.7 mph /  7.6 km/h 5.0 mph /  8 km/h 81 % 0.0 in /  0 mm
22:57 3.7 °F /  -15.7 °C 0.9 °F /  -17.3 °C 1014.1 in /  34337.4 hPa Calm   5.0 mph /  8 km/h 82 % 0.0 in /  0 mm
23:02 3.7 °F /  -15.7 °C 0.9 °F /  -17.3 °C 1014.1 in /  34337.4 hPa Calm   4.3 mph /  6.9 km/h 82 % 0.0 in /  0 mm
23:07 3.6 °F /  -15.8 °C 0.8 °F /  -17.3 °C 1014.1 in /  34337.4 hPa Calm   4.0 mph /  6.4 km/h 82 % 0.0 in /  0 mm
23:12 3.6 °F /  -15.8 °C 0.7 °F /  -17.4 °C 1014.1 in /  34337.4 hPa South 4.7 mph /  7.6 km/h 5.8 mph /  9.3 km/h 82 % 0.0 in /  0 mm
23:17 3.6 °F /  -15.8 °C 0.9 °F /  -17.3 °C 1014.1 in /  34337.4 hPa Calm   6.1 mph /  9.8 km/h 83 % 0.0 in /  0 mm
23:22 3.6 °F /  -15.8 °C 0.9 °F /  -17.3 °C 1014.1 in /  34337.4 hPa Calm   6.9 mph /  11.1 km/h 83 % 0.0 in /  0 mm
23:27 3.6 °F /  -15.8 °C 0.9 °F /  -17.3 °C 1014.1 in /  34337.4 hPa Calm   6.9 mph /  11.1 km/h 83 % 0.0 in /  0 mm
23:32 3.4 °F /  -15.9 °C 1.0 °F /  -17.2 °C 1014.1 in /  34337.4 hPa South 2.1 mph /  3.4 km/h 4.0 mph /  6.4 km/h 84 % 0.0 in /  0 mm
23:37 3.3 °F /  -15.9 °C 0.9 °F /  -17.3 °C 1014.1 in /  34337.4 hPa South 4.0 mph /  6.4 km/h 5.0 mph /  8 km/h 84 % 0.0 in /  0 mm
23:42 3.3 °F /  -15.9 °C 1.1 °F /  -17.2 °C 1014.1 in /  34337.4 hPa Calm   5.5 mph /  8.9 km/h 85 % 0.0 in /  0 mm
23:52 3.3 °F /  -15.9 °C 1.1 °F /  -17.2 °C 1014.1 in /  34337.4 hPa Calm   3.5 mph /  5.6 km/h 85 % 0.0 in /  0 mm
23:57 3.3 °F /  -15.9 °C 1.1 °F /  -17.2 °C 1014.1 in /  34337.4 hPa SSE 4.3 mph /  6.9 km/h 4.3 mph /  6.9 km/h 85 % 0.0 in /  0 mm
Le Gheer Warneton
Courtoisie de Weather Underground - 2.25 mb

Mise a jour : 18/02/2018 06:24:11
Généré par Cumulus 1.9.4 (1099)